createdAt,value
2019-05-12T00:00:11.299Z,0.00
2019-05-12T00:01:11.496Z,0.00
2019-05-12T00:02:11.271Z,0.00
2019-05-12T00:03:11.252Z,0.00
2019-05-12T00:04:11.239Z,0.00
2019-05-12T00:05:11.274Z,0.00
2019-05-12T00:06:11.251Z,0.00
2019-05-12T00:07:11.210Z,0.00
2019-05-12T00:08:11.198Z,0.00
2019-05-12T00:09:11.185Z,0.00
2019-05-12T00:10:11.184Z,0.00
2019-05-12T00:11:11.194Z,0.00
2019-05-12T00:12:11.192Z,0.00
2019-05-12T00:13:11.140Z,0.00
2019-05-12T00:14:11.125Z,0.00
2019-05-12T00:15:11.120Z,0.00
2019-05-12T00:16:11.108Z,0.00
2019-05-12T00:17:11.119Z,0.00
2019-05-12T00:18:11.101Z,0.00
2019-05-12T00:19:11.076Z,0.00
2019-05-12T00:20:11.075Z,0.00
2019-05-12T00:21:11.051Z,0.00
2019-05-12T00:22:11.065Z,0.00
2019-05-12T00:23:23.937Z,0.00
2019-05-12T00:24:12.013Z,0.00
2019-05-12T00:25:11.008Z,0.00
2019-05-12T00:26:10.995Z,0.00
2019-05-12T00:27:11.009Z,0.00
2019-05-12T00:28:10.989Z,0.00
2019-05-12T00:29:10.970Z,0.00
2019-05-12T00:30:10.961Z,0.00
2019-05-12T00:31:10.943Z,0.00
2019-05-12T00:32:10.950Z,0.00
2019-05-12T00:33:10.909Z,0.00
2019-05-12T00:34:10.905Z,0.00
2019-05-12T00:35:10.897Z,0.00
2019-05-12T00:36:10.876Z,0.00
2019-05-12T00:37:10.894Z,0.00
2019-05-12T00:38:10.880Z,0.00
2019-05-12T00:39:10.844Z,0.00
2019-05-12T00:40:10.834Z,0.00
2019-05-12T00:41:10.829Z,0.00
2019-05-12T00:42:10.805Z,0.00
2019-05-12T00:43:10.821Z,0.00
2019-05-12T00:44:10.794Z,0.00
2019-05-12T00:45:10.775Z,0.00
2019-05-12T00:46:10.775Z,0.00
2019-05-12T00:47:10.761Z,0.00
2019-05-12T00:48:10.762Z,0.00
2019-05-12T00:49:10.727Z,0.00
2019-05-12T00:50:10.719Z,0.00
2019-05-12T00:51:10.709Z,0.00
2019-05-12T00:52:10.699Z,0.00
2019-05-12T00:53:10.705Z,0.00
2019-05-12T00:54:10.676Z,0.00
2019-05-12T00:55:10.663Z,0.00
2019-05-12T00:56:10.656Z,0.00
2019-05-12T00:57:10.646Z,0.00
2019-05-12T00:58:10.665Z,0.00
2019-05-12T00:59:10.644Z,0.00
2019-05-12T01:00:10.620Z,0.00
2019-05-12T01:01:10.594Z,0.00
2019-05-12T01:02:10.730Z,0.00
2019-05-12T01:03:10.586Z,0.00
2019-05-12T01:04:10.636Z,0.00
2019-05-12T01:05:10.552Z,0.00
2019-05-12T01:06:10.547Z,0.00
2019-05-12T01:07:10.526Z,0.00
2019-05-12T01:08:10.582Z,0.00
2019-05-12T01:09:10.531Z,0.00
2019-05-12T01:10:10.562Z,0.00
2019-05-12T01:11:10.487Z,0.00
2019-05-12T01:12:10.510Z,0.00
2019-05-12T01:13:10.456Z,0.00
2019-05-12T01:14:10.611Z,0.00
2019-05-12T01:15:10.439Z,0.00
2019-05-12T01:16:10.433Z,0.00
2019-05-12T01:17:10.415Z,0.00
2019-05-12T01:18:10.400Z,0.00
2019-05-12T01:19:10.420Z,0.00
2019-05-12T01:20:10.385Z,0.00
2019-05-12T01:21:10.371Z,0.00
2019-05-12T01:22:10.364Z,0.00
2019-05-12T01:23:10.351Z,0.00
2019-05-12T01:24:10.381Z,0.00
2019-05-12T01:25:10.325Z,0.00
2019-05-12T01:26:10.312Z,0.00
2019-05-12T01:27:10.306Z,0.00
2019-05-12T01:28:10.292Z,0.00
2019-05-12T01:29:10.303Z,0.00
2019-05-12T01:30:10.292Z,0.00
2019-05-12T01:31:10.260Z,0.00
2019-05-12T01:32:10.243Z,0.00
2019-05-12T01:33:10.240Z,0.00
2019-05-12T01:34:10.223Z,0.00
2019-05-12T01:35:10.238Z,0.00
2019-05-12T01:36:10.209Z,0.00
2019-05-12T01:37:10.187Z,0.00
2019-05-12T01:38:10.186Z,0.00
2019-05-12T01:39:10.170Z,0.00
2019-05-12T01:40:10.184Z,0.00
2019-05-12T01:41:10.142Z,0.00
2019-05-12T01:42:10.138Z,0.00
2019-05-12T01:43:10.116Z,0.00
2019-05-12T01:44:10.117Z,0.00
2019-05-12T01:45:10.128Z,0.00
2019-05-12T01:46:10.081Z,0.00
2019-05-12T01:47:10.074Z,0.00
2019-05-12T01:48:10.067Z,0.00
2019-05-12T01:49:10.051Z,0.00
2019-05-12T01:50:10.066Z,0.00
2019-05-12T01:51:10.055Z,0.00
2019-05-12T01:52:10.016Z,0.00
2019-05-12T01:53:10.012Z,0.00
2019-05-12T01:54:14.570Z,0.00
2019-05-12T01:55:10.978Z,0.00
2019-05-12T01:56:09.991Z,0.00
2019-05-12T01:57:09.958Z,0.00
2019-05-12T01:58:09.952Z,0.00
2019-05-12T01:59:09.931Z,0.00
2019-05-12T02:00:09.943Z,0.00
2019-05-12T02:01:09.935Z,0.00
2019-05-12T02:02:09.908Z,0.00
2019-05-12T02:03:09.896Z,0.00
2019-05-12T02:04:09.873Z,0.00
2019-05-12T02:05:09.871Z,0.00
2019-05-12T02:06:09.895Z,0.00
2019-05-12T02:07:09.845Z,0.00
2019-05-12T02:08:09.935Z,0.00
2019-05-12T02:09:09.839Z,0.00
2019-05-12T02:10:09.811Z,0.00
2019-05-12T02:11:09.898Z,0.00
2019-05-12T02:12:09.798Z,0.00
2019-05-12T02:13:09.779Z,0.00
2019-05-12T02:14:09.765Z,0.00
2019-05-12T02:15:09.852Z,0.00
2019-05-12T02:16:09.754Z,0.00
2019-05-12T02:17:09.916Z,0.00
2019-05-12T02:18:09.723Z,0.00
2019-05-12T02:19:09.723Z,0.00
2019-05-12T02:20:09.713Z,0.00
2019-05-12T02:21:09.693Z,0.00
2019-05-12T02:22:09.699Z,0.00
2019-05-12T02:23:09.666Z,0.00
2019-05-12T02:24:23.493Z,0.00
2019-05-12T02:25:10.638Z,0.00
2019-05-12T02:26:09.631Z,0.00
2019-05-12T02:27:09.743Z,0.00
2019-05-12T02:28:09.709Z,0.00
2019-05-12T02:29:09.602Z,0.00
2019-05-12T02:30:10.326Z,0.00
2019-05-12T02:31:09.841Z,0.00
2019-05-12T02:32:09.595Z,0.00
2019-05-12T02:33:09.575Z,0.00
2019-05-12T02:34:09.543Z,0.00
2019-05-12T02:35:09.529Z,0.00
2019-05-12T02:36:09.523Z,0.00
2019-05-12T02:37:09.542Z,0.00
2019-05-12T02:38:09.503Z,0.00
2019-05-12T02:39:09.488Z,0.00
2019-05-12T02:40:09.482Z,0.00
2019-05-12T02:41:09.469Z,0.00
2019-05-12T02:42:09.479Z,0.00
2019-05-12T02:43:09.453Z,0.00
2019-05-12T02:44:09.432Z,0.00
2019-05-12T02:45:09.418Z,0.00
2019-05-12T02:46:09.405Z,0.00
2019-05-12T02:47:09.427Z,0.00
2019-05-12T02:48:09.394Z,0.00
2019-05-12T02:49:09.381Z,0.00
2019-05-12T02:50:09.363Z,0.00
2019-05-12T02:51:09.351Z,0.00
2019-05-12T02:52:09.382Z,0.00
2019-05-12T02:53:09.341Z,0.00
2019-05-12T02:54:09.324Z,0.00
2019-05-12T02:55:09.317Z,0.00
2019-05-12T02:56:09.298Z,0.00
2019-05-12T02:57:09.286Z,0.00
2019-05-12T02:58:09.297Z,0.00
2019-05-12T02:59:09.276Z,0.00
2019-05-12T03:00:09.257Z,0.00
2019-05-12T03:01:09.241Z,0.00
2019-05-12T03:02:09.228Z,0.00
2019-05-12T03:03:09.416Z,0.00
2019-05-12T03:04:09.212Z,0.00
2019-05-12T03:05:09.204Z,0.00
2019-05-12T03:06:09.189Z,0.00
2019-05-12T03:07:09.174Z,0.00
2019-05-12T03:08:09.195Z,0.00
2019-05-12T03:09:09.155Z,0.00
2019-05-12T03:10:09.140Z,0.00
2019-05-12T03:11:09.128Z,0.00
2019-05-12T03:12:09.117Z,0.00
2019-05-12T03:13:09.131Z,0.00
2019-05-12T03:14:09.094Z,0.00
2019-05-12T03:15:09.092Z,0.00
2019-05-12T03:16:09.070Z,0.00
2019-05-12T03:17:09.058Z,0.00
2019-05-12T03:18:09.101Z,0.00
2019-05-12T03:19:09.042Z,0.00
2019-05-12T03:20:09.032Z,0.00
2019-05-12T03:21:09.017Z,0.00
2019-05-12T03:22:09.015Z,0.00
2019-05-12T03:23:09.023Z,0.00
2019-05-12T03:24:08.979Z,0.00
2019-05-12T03:25:20.042Z,0.00
2019-05-12T03:26:10.042Z,0.00
2019-05-12T03:27:08.953Z,0.00
2019-05-12T03:28:09.601Z,4.00
2019-05-12T03:29:08.948Z,4.00
2019-05-12T03:30:11.602Z,0.00
2019-05-12T03:31:09.012Z,0.00
2019-05-12T03:32:09.173Z,0.00
2019-05-12T03:33:11.358Z,4.00
2019-05-12T03:34:11.174Z,4.00
2019-05-12T03:35:09.575Z,0.00
2019-05-12T03:36:10.291Z,0.00
2019-05-12T03:37:09.033Z,4.00
2019-05-12T03:38:08.834Z,4.00
2019-05-12T03:39:08.856Z,4.00
2019-05-12T03:40:08.808Z,4.00
2019-05-12T03:41:08.789Z,4.00
2019-05-12T03:42:08.784Z,4.00
2019-05-12T03:43:08.770Z,4.00
2019-05-12T03:44:08.788Z,4.00
2019-05-12T03:45:08.743Z,8.00
2019-05-12T03:46:08.732Z,4.00
2019-05-12T03:47:08.728Z,8.00
2019-05-12T03:48:08.723Z,8.00
2019-05-12T03:49:08.729Z,8.00
2019-05-12T03:50:08.689Z,8.00
2019-05-12T03:51:08.675Z,8.00
2019-05-12T03:52:08.664Z,8.00
2019-05-12T03:53:10.774Z,8.00
2019-05-12T03:54:08.686Z,8.00
2019-05-12T03:55:29.732Z,12.00
2019-05-12T03:56:09.619Z,8.00
2019-05-12T03:57:08.614Z,12.00
2019-05-12T03:58:08.602Z,12.00
2019-05-12T03:59:08.610Z,12.00
2019-05-12T04:00:08.606Z,12.00
2019-05-12T04:01:08.566Z,12.00
2019-05-12T04:02:08.573Z,12.00
2019-05-12T04:03:08.544Z,16.00
2019-05-12T04:04:08.568Z,16.00
2019-05-12T04:05:08.533Z,16.00
2019-05-12T04:06:08.513Z,16.00
2019-05-12T04:07:08.519Z,16.00
2019-05-12T04:08:08.497Z,20.00
2019-05-12T04:09:08.504Z,16.00
2019-05-12T04:10:08.499Z,20.00
2019-05-12T04:11:08.454Z,20.00
2019-05-12T04:12:08.440Z,20.00
2019-05-12T04:13:08.469Z,20.00
2019-05-12T04:14:08.416Z,20.00
2019-05-12T04:15:08.552Z,24.00
2019-05-12T04:16:08.398Z,20.00
2019-05-12T04:17:08.402Z,24.00
2019-05-12T04:18:08.379Z,20.00
2019-05-12T04:19:08.362Z,20.00
2019-05-12T04:20:08.408Z,20.00
2019-05-12T04:21:08.350Z,24.00
2019-05-12T04:22:08.326Z,24.00
2019-05-12T04:23:08.318Z,24.00
2019-05-12T04:24:08.314Z,24.00
2019-05-12T04:25:08.323Z,28.00
2019-05-12T04:26:12.292Z,28.00
2019-05-12T04:27:09.273Z,28.00
2019-05-12T04:28:08.263Z,28.00
2019-05-12T04:29:08.252Z,32.00
2019-05-12T04:30:08.272Z,32.00
2019-05-12T04:31:08.256Z,32.00
2019-05-12T04:32:08.219Z,32.00
2019-05-12T04:33:08.202Z,36.00
2019-05-12T04:34:08.201Z,36.00
2019-05-12T04:35:08.205Z,36.00
2019-05-12T04:36:08.194Z,40.00
2019-05-12T04:37:08.154Z,40.00
2019-05-12T04:38:08.147Z,44.00
2019-05-12T04:39:08.137Z,44.00
2019-05-12T04:40:08.120Z,44.00
2019-05-12T04:41:08.138Z,44.00
2019-05-12T04:42:08.100Z,44.00
2019-05-12T04:43:08.093Z,44.00
2019-05-12T04:44:08.079Z,44.00
2019-05-12T04:45:08.069Z,44.00
2019-05-12T04:46:08.076Z,48.00
2019-05-12T04:47:08.075Z,44.00
2019-05-12T04:48:08.030Z,48.00
2019-05-12T04:49:08.020Z,48.00
2019-05-12T04:50:08.013Z,48.00
2019-05-12T04:51:08.025Z,52.00
2019-05-12T04:52:07.989Z,48.00
2019-05-12T04:53:07.973Z,48.00
2019-05-12T04:54:07.980Z,52.00
2019-05-12T04:55:07.949Z,52.00
2019-05-12T04:56:18.983Z,56.00
2019-05-12T04:57:08.925Z,60.00
2019-05-12T04:58:07.919Z,56.00
2019-05-12T04:59:07.908Z,56.00
2019-05-12T05:00:07.897Z,60.00
2019-05-12T05:01:07.884Z,60.00
2019-05-12T05:02:07.893Z,64.00
2019-05-12T05:03:07.866Z,64.00
2019-05-12T05:04:07.854Z,64.00
2019-05-12T05:05:07.835Z,64.00
2019-05-12T05:06:07.859Z,64.00
2019-05-12T05:07:07.849Z,64.00
2019-05-12T05:08:07.802Z,68.00
2019-05-12T05:09:07.833Z,64.00
2019-05-12T05:10:07.777Z,64.00
2019-05-12T05:11:07.773Z,64.00
2019-05-12T05:12:07.794Z,68.00
2019-05-12T05:13:07.747Z,68.00
2019-05-12T05:14:07.733Z,68.00
2019-05-12T05:15:07.729Z,68.00
2019-05-12T05:16:07.711Z,68.00
2019-05-12T05:17:07.742Z,64.00
2019-05-12T05:18:07.706Z,64.00
2019-05-12T05:19:07.699Z,68.00
2019-05-12T05:20:07.666Z,72.00
2019-05-12T05:21:07.652Z,72.00
2019-05-12T05:22:07.682Z,76.00
2019-05-12T05:23:07.628Z,72.00
2019-05-12T05:24:07.627Z,76.00
2019-05-12T05:25:07.606Z,76.00
2019-05-12T05:26:21.146Z,72.00
2019-05-12T05:27:08.619Z,76.00
2019-05-12T05:28:07.701Z,76.00
2019-05-12T05:29:07.566Z,76.00
2019-05-12T05:30:07.631Z,80.00
2019-05-12T05:31:07.566Z,80.00
2019-05-12T05:32:07.673Z,80.00
2019-05-12T05:33:07.539Z,84.00
2019-05-12T05:34:07.502Z,84.00
2019-05-12T05:35:07.877Z,84.00
2019-05-12T05:36:08.983Z,84.00
2019-05-12T05:37:08.500Z,80.00
2019-05-12T05:38:10.765Z,84.00
2019-05-12T05:39:08.449Z,84.00
2019-05-12T05:40:07.436Z,92.00
2019-05-12T05:41:10.413Z,96.00
2019-05-12T05:42:07.417Z,92.00
2019-05-12T05:43:18.227Z,92.00
2019-05-12T05:44:08.403Z,100.00
2019-05-12T05:45:10.508Z,100.00
2019-05-12T05:46:08.406Z,100.00
2019-05-12T05:47:07.383Z,100.00
2019-05-12T05:48:10.044Z,104.00
2019-05-12T05:49:07.340Z,104.00
2019-05-12T05:50:07.332Z,100.00
2019-05-12T05:51:09.034Z,108.00
2019-05-12T05:52:07.308Z,112.00
2019-05-12T05:53:09.182Z,108.00
2019-05-12T05:54:08.310Z,100.00
2019-05-12T05:55:14.597Z,88.00
2019-05-12T05:56:08.255Z,80.00
2019-05-12T05:57:07.252Z,100.00
2019-05-12T05:58:10.341Z,100.00
2019-05-12T05:59:07.232Z,100.00
2019-05-12T06:00:16.286Z,100.00
2019-05-12T06:01:08.426Z,100.00
2019-05-12T06:02:07.190Z,104.00
2019-05-12T06:03:15.013Z,100.00
2019-05-12T06:04:08.773Z,104.00
2019-05-12T06:05:07.158Z,88.00
2019-05-12T06:06:12.234Z,100.00
2019-05-12T06:07:08.131Z,96.00
2019-05-12T06:08:09.665Z,104.00
2019-05-12T06:09:08.148Z,104.00
2019-05-12T06:10:07.105Z,100.00
2019-05-12T06:11:08.644Z,100.00
2019-05-12T06:12:09.663Z,108.00
2019-05-12T06:13:07.093Z,108.00
2019-05-12T06:14:11.274Z,108.00
2019-05-12T06:15:08.907Z,108.00
2019-05-12T06:16:11.644Z,108.00
2019-05-12T06:17:08.024Z,108.00
2019-05-12T06:18:07.057Z,112.00
2019-05-12T06:19:06.999Z,116.00
2019-05-12T06:20:07.002Z,116.00
2019-05-12T06:21:06.986Z,116.00
2019-05-12T06:22:09.090Z,120.00
2019-05-12T06:23:08.126Z,120.00
2019-05-12T06:24:08.772Z,120.00
2019-05-12T06:25:07.934Z,116.00
2019-05-12T06:26:06.964Z,116.00
2019-05-12T06:27:15.134Z,116.00
2019-05-12T06:28:08.907Z,116.00
2019-05-12T06:29:11.421Z,104.00
2019-05-12T06:30:07.883Z,100.00
2019-05-12T06:31:06.877Z,120.00
2019-05-12T06:32:10.710Z,120.00
2019-05-12T06:33:06.923Z,120.00
2019-05-12T06:34:15.493Z,124.00
2019-05-12T06:35:07.823Z,124.00
2019-05-12T06:36:07.573Z,128.00
2019-05-12T06:37:11.902Z,140.00
2019-05-12T06:38:07.788Z,144.00
2019-05-12T06:39:10.422Z,148.00
2019-05-12T06:40:07.766Z,124.00
2019-05-12T06:41:06.761Z,132.00
2019-05-12T06:42:12.742Z,140.00
2019-05-12T06:43:07.736Z,156.00
2019-05-12T06:44:08.823Z,164.00
2019-05-12T06:45:07.743Z,172.00
2019-05-12T06:46:06.703Z,188.00
2019-05-12T06:47:08.359Z,184.00
2019-05-12T06:48:06.682Z,208.00
2019-05-12T06:49:12.616Z,220.00
2019-05-12T06:50:07.700Z,200.00
2019-05-12T06:51:09.134Z,216.00
2019-05-12T06:52:07.640Z,176.00
2019-05-12T06:53:06.624Z,168.00
2019-05-12T06:54:11.886Z,176.00
2019-05-12T06:55:07.632Z,184.00
2019-05-12T06:56:09.334Z,180.00
2019-05-12T06:57:21.007Z,188.00
2019-05-12T06:58:07.567Z,140.00
2019-05-12T06:59:10.272Z,140.00
2019-05-12T07:00:07.566Z,140.00
2019-05-12T07:01:10.860Z,148.00
2019-05-12T07:02:07.520Z,152.00
2019-05-12T07:03:06.517Z,160.00
2019-05-12T07:04:10.058Z,168.00
2019-05-12T07:05:06.525Z,160.00
2019-05-12T07:06:09.139Z,176.00
2019-05-12T07:07:07.476Z,224.00
2019-05-12T07:08:06.466Z,228.00
2019-05-12T07:09:09.913Z,200.00
2019-05-12T07:10:11.719Z,236.00
2019-05-12T07:11:07.465Z,248.00
2019-05-12T07:12:07.283Z,244.00
2019-05-12T07:13:06.420Z,208.00
2019-05-12T07:14:13.031Z,232.00
2019-05-12T07:15:07.404Z,208.00
2019-05-12T07:16:10.116Z,204.00
2019-05-12T07:17:07.383Z,196.00
2019-05-12T07:18:06.347Z,188.00
2019-05-12T07:19:15.640Z,200.00
2019-05-12T07:20:07.318Z,204.00
2019-05-12T07:21:09.422Z,220.00
2019-05-12T07:22:18.903Z,192.00
2019-05-12T07:23:07.287Z,180.00
2019-05-12T07:24:10.929Z,184.00
2019-05-12T07:25:08.236Z,180.00
2019-05-12T07:26:14.072Z,180.00
2019-05-12T07:27:09.282Z,192.00
2019-05-12T07:28:07.878Z,220.00
2019-05-12T07:29:06.218Z,244.00
2019-05-12T07:30:06.218Z,244.00
2019-05-12T07:31:06.226Z,232.00
2019-05-12T07:32:14.792Z,204.00
2019-05-12T07:33:07.174Z,220.00
2019-05-12T07:34:07.875Z,220.00
2019-05-12T07:35:06.162Z,184.00
2019-05-12T07:36:06.604Z,152.00
2019-05-12T07:37:06.129Z,180.00
2019-05-12T07:38:06.128Z,196.00
2019-05-12T07:39:08.301Z,188.00
2019-05-12T07:40:06.099Z,208.00
2019-05-12T07:41:10.560Z,168.00
2019-05-12T07:42:06.089Z,148.00
2019-05-12T07:43:09.827Z,156.00
2019-05-12T07:44:07.055Z,160.00
2019-05-12T07:45:06.059Z,156.00
2019-05-12T07:46:07.262Z,160.00
2019-05-12T07:47:06.016Z,156.00
2019-05-12T07:48:10.236Z,204.00
2019-05-12T07:49:06.005Z,204.00
2019-05-12T07:50:09.808Z,184.00
2019-05-12T07:51:07.000Z,152.00
2019-05-12T07:52:05.963Z,132.00
2019-05-12T07:53:05.945Z,164.00
2019-05-12T07:54:05.948Z,176.00
2019-05-12T07:55:05.953Z,200.00
2019-05-12T07:56:05.941Z,208.00
2019-05-12T07:57:11.804Z,204.00
2019-05-12T07:58:14.031Z,184.00
2019-05-12T07:59:06.891Z,212.00
2019-05-12T08:00:05.870Z,184.00
2019-05-12T08:01:08.041Z,224.00
2019-05-12T08:02:05.886Z,196.00
2019-05-12T08:03:14.847Z,192.00
2019-05-12T08:04:06.828Z,188.00
2019-05-12T08:05:05.826Z,188.00
2019-05-12T08:06:05.800Z,184.00
2019-05-12T08:07:05.822Z,180.00
2019-05-12T08:08:10.708Z,192.00
2019-05-12T08:09:06.771Z,192.00
2019-05-12T08:10:07.227Z,208.00
2019-05-12T08:11:06.773Z,196.00
2019-05-12T08:12:09.814Z,180.00
2019-05-12T08:13:06.728Z,180.00
2019-05-12T08:14:05.714Z,184.00
2019-05-12T08:15:09.583Z,184.00
2019-05-12T08:16:05.713Z,180.00
2019-05-12T08:17:11.197Z,180.00
2019-05-12T08:18:08.076Z,176.00
2019-05-12T08:19:08.319Z,248.00
2019-05-12T08:20:05.644Z,244.00
2019-05-12T08:21:05.647Z,236.00
2019-05-12T08:22:05.647Z,228.00
2019-05-12T08:23:10.211Z,232.00
2019-05-12T08:24:06.603Z,232.00
2019-05-12T08:25:05.585Z,228.00
2019-05-12T08:26:12.528Z,224.00
2019-05-12T08:27:06.757Z,224.00
2019-05-12T08:28:14.746Z,156.00
2019-05-12T08:29:10.314Z,152.00
2019-05-12T08:30:06.529Z,236.00
2019-05-12T08:31:05.524Z,240.00
2019-05-12T08:32:10.008Z,192.00
2019-05-12T08:33:09.572Z,184.00
2019-05-12T08:34:05.497Z,252.00
2019-05-12T08:35:05.507Z,268.00
2019-05-12T08:36:11.197Z,268.00
2019-05-12T08:37:06.450Z,272.00
2019-05-12T08:38:05.478Z,276.00
2019-05-12T08:39:06.222Z,288.00
2019-05-12T08:40:07.639Z,296.00
2019-05-12T08:41:05.407Z,296.00
2019-05-12T08:42:05.395Z,304.00
2019-05-12T08:43:10.225Z,300.00
2019-05-12T08:44:06.398Z,276.00
2019-05-12T08:45:08.269Z,268.00
2019-05-12T08:46:10.645Z,260.00
2019-05-12T08:47:06.347Z,256.00
2019-05-12T08:48:10.121Z,252.00
2019-05-12T08:49:06.311Z,252.00
2019-05-12T08:50:05.317Z,268.00
2019-05-12T08:51:14.374Z,232.00
2019-05-12T08:52:06.282Z,208.00
2019-05-12T08:53:05.324Z,208.00
2019-05-12T08:54:07.833Z,208.00
2019-05-12T08:55:05.247Z,228.00
2019-05-12T08:56:13.345Z,228.00
2019-05-12T08:57:06.222Z,224.00
2019-05-12T08:58:05.277Z,228.00
2019-05-12T08:59:09.553Z,228.00
2019-05-12T09:00:08.674Z,228.00
2019-05-12T09:01:05.203Z,216.00
2019-05-12T09:02:07.334Z,204.00
2019-05-12T09:03:06.188Z,216.00
2019-05-12T09:04:12.016Z,228.00
2019-05-12T09:05:06.132Z,236.00
2019-05-12T09:06:09.211Z,244.00
2019-05-12T09:07:06.133Z,264.00
2019-05-12T09:08:05.165Z,272.00
2019-05-12T09:09:05.087Z,276.00
2019-05-12T09:10:05.076Z,324.00
2019-05-12T09:11:05.073Z,288.00
2019-05-12T09:12:05.091Z,260.00
2019-05-12T09:13:05.060Z,260.00
2019-05-12T09:14:05.859Z,256.00
2019-05-12T09:15:07.868Z,260.00
2019-05-12T09:16:05.009Z,292.00
2019-05-12T09:17:07.235Z,272.00
2019-05-12T09:18:05.188Z,288.00
2019-05-12T09:19:09.743Z,328.00
2019-05-12T09:20:08.279Z,332.00
2019-05-12T09:21:04.969Z,324.00
2019-05-12T09:22:16.277Z,312.00
2019-05-12T09:23:05.933Z,308.00
2019-05-12T09:24:04.962Z,304.00
2019-05-12T09:25:08.267Z,300.00
2019-05-12T09:26:04.909Z,300.00
2019-05-12T09:27:08.735Z,304.00
2019-05-12T09:28:04.877Z,304.00
2019-05-12T09:29:07.386Z,304.00
2019-05-12T09:30:09.509Z,300.00
2019-05-12T09:31:05.848Z,300.00
2019-05-12T09:32:09.363Z,304.00
2019-05-12T09:33:04.816Z,300.00
2019-05-12T09:34:11.782Z,308.00
2019-05-12T09:35:05.794Z,312.00
2019-05-12T09:36:04.793Z,308.00
2019-05-12T09:37:04.785Z,196.00
2019-05-12T09:38:06.099Z,200.00
2019-05-12T09:39:05.856Z,216.00
2019-05-12T09:40:04.778Z,352.00
2019-05-12T09:41:05.427Z,368.00
2019-05-12T09:42:04.730Z,380.00
2019-05-12T09:43:06.350Z,376.00
2019-05-12T09:44:05.719Z,300.00
2019-05-12T09:45:06.130Z,368.00
2019-05-12T09:46:05.673Z,256.00
2019-05-12T09:47:07.633Z,252.00
2019-05-12T09:48:09.060Z,224.00
2019-05-12T09:49:04.678Z,224.00
2019-05-12T09:50:09.482Z,304.00
2019-05-12T09:51:07.957Z,268.00
2019-05-12T09:52:04.627Z,384.00
2019-05-12T09:53:09.735Z,396.00
2019-05-12T09:54:05.606Z,408.00
2019-05-12T09:55:04.599Z,416.00
2019-05-12T09:56:04.650Z,404.00
2019-05-12T09:57:04.561Z,404.00
2019-05-12T09:58:04.558Z,392.00
2019-05-12T09:59:17.257Z,392.00
2019-05-12T10:00:05.547Z,388.00
2019-05-12T10:01:04.548Z,380.00
2019-05-12T10:02:04.512Z,376.00
2019-05-12T10:03:07.962Z,376.00
2019-05-12T10:04:04.476Z,376.00
2019-05-12T10:05:04.468Z,380.00
2019-05-12T10:06:04.519Z,388.00
2019-05-12T10:07:04.448Z,412.00
2019-05-12T10:08:04.825Z,428.00
2019-05-12T10:09:08.927Z,324.00
2019-05-12T10:10:05.423Z,452.00
2019-05-12T10:11:04.444Z,448.00
2019-05-12T10:12:05.602Z,452.00
2019-05-12T10:13:04.989Z,436.00
2019-05-12T10:14:06.586Z,268.00
2019-05-12T10:15:05.356Z,252.00
2019-05-12T10:16:08.584Z,432.00
2019-05-12T10:17:04.335Z,452.00
2019-05-12T10:18:09.473Z,304.00
2019-05-12T10:19:05.308Z,280.00
2019-05-12T10:20:04.310Z,276.00
2019-05-12T10:21:04.326Z,292.00
2019-05-12T10:22:04.284Z,356.00
2019-05-12T10:23:04.673Z,308.00
2019-05-12T10:24:05.080Z,304.00
2019-05-12T10:25:04.259Z,320.00
2019-05-12T10:26:09.384Z,324.00
2019-05-12T10:27:05.223Z,308.00
2019-05-12T10:28:11.392Z,440.00
2019-05-12T10:29:16.439Z,460.00
2019-05-12T10:30:12.000Z,304.00
2019-05-12T10:31:05.219Z,328.00
2019-05-12T10:32:04.194Z,356.00
2019-05-12T10:33:04.183Z,388.00
2019-05-12T10:34:04.165Z,484.00
2019-05-12T10:35:04.143Z,480.00
2019-05-12T10:36:05.291Z,460.00
2019-05-12T10:37:04.247Z,460.00
2019-05-12T10:38:09.082Z,456.00
2019-05-12T10:39:05.090Z,452.00
2019-05-12T10:40:04.073Z,436.00
2019-05-12T10:41:04.408Z,432.00
2019-05-12T10:42:04.068Z,432.00
2019-05-12T10:43:04.795Z,444.00
2019-05-12T10:44:04.153Z,460.00
2019-05-12T10:45:04.353Z,480.00
2019-05-12T10:46:04.314Z,300.00
2019-05-12T10:47:04.532Z,304.00
2019-05-12T10:48:04.008Z,456.00
2019-05-12T10:49:04.039Z,536.00
2019-05-12T10:50:03.961Z,388.00
2019-05-12T10:51:04.002Z,400.00
2019-05-12T10:52:04.072Z,380.00
2019-05-12T10:53:04.720Z,352.00
2019-05-12T10:54:09.983Z,324.00
2019-05-12T10:55:04.897Z,336.00
2019-05-12T10:56:03.947Z,388.00
2019-05-12T10:57:05.062Z,372.00
2019-05-12T10:58:06.955Z,352.00
2019-05-12T10:59:04.358Z,348.00
2019-05-12T11:00:04.269Z,340.00
2019-05-12T11:01:07.392Z,320.00
2019-05-12T11:02:03.849Z,300.00
2019-05-12T11:03:10.336Z,296.00
2019-05-12T11:04:04.803Z,288.00
2019-05-12T11:05:03.814Z,276.00
2019-05-12T11:06:07.536Z,276.00
2019-05-12T11:07:04.687Z,288.00
2019-05-12T11:08:11.046Z,304.00
2019-05-12T11:09:04.753Z,316.00
2019-05-12T11:10:15.443Z,356.00
2019-05-12T11:11:04.722Z,300.00
2019-05-12T11:12:03.729Z,540.00
2019-05-12T11:13:08.467Z,560.00
2019-05-12T11:14:04.682Z,572.00
2019-05-12T11:15:06.872Z,540.00
2019-05-12T11:16:03.936Z,504.00
2019-05-12T11:17:07.885Z,484.00
2019-05-12T11:18:03.645Z,464.00
2019-05-12T11:19:06.493Z,460.00
2019-05-12T11:20:04.639Z,444.00
2019-05-12T11:21:03.770Z,436.00
2019-05-12T11:22:03.829Z,432.00
2019-05-12T11:23:03.844Z,428.00
2019-05-12T11:24:03.901Z,432.00
2019-05-12T11:25:04.280Z,428.00
2019-05-12T11:26:03.994Z,428.00
2019-05-12T11:27:04.077Z,428.00
2019-05-12T11:28:03.936Z,428.00
2019-05-12T11:29:03.834Z,428.00
2019-05-12T11:30:04.310Z,440.00
2019-05-12T11:31:03.492Z,436.00
2019-05-12T11:32:03.488Z,440.00
2019-05-12T11:33:04.391Z,448.00
2019-05-12T11:34:04.807Z,456.00
2019-05-12T11:35:04.141Z,456.00
2019-05-12T11:36:04.381Z,456.00
2019-05-12T11:37:03.555Z,472.00
2019-05-12T11:38:04.415Z,468.00
2019-05-12T11:39:03.698Z,464.00
2019-05-12T11:40:04.316Z,484.00
2019-05-12T11:41:04.223Z,504.00
2019-05-12T11:42:04.251Z,512.00
2019-05-12T11:43:04.123Z,296.00
2019-05-12T11:44:04.007Z,284.00
2019-05-12T11:45:03.341Z,292.00
2019-05-12T11:46:03.333Z,532.00
2019-05-12T11:47:03.803Z,528.00
2019-05-12T11:48:10.219Z,528.00
2019-05-12T11:49:04.491Z,536.00
2019-05-12T11:50:05.254Z,380.00
2019-05-12T11:51:03.943Z,296.00
2019-05-12T11:52:09.214Z,284.00
2019-05-12T11:53:04.480Z,284.00
2019-05-12T11:54:08.556Z,296.00
2019-05-12T11:55:04.226Z,292.00
2019-05-12T11:56:07.829Z,296.00
2019-05-12T11:57:04.205Z,516.00
2019-05-12T11:58:06.720Z,512.00
2019-05-12T11:59:04.221Z,352.00
2019-05-12T12:00:05.426Z,556.00
2019-05-12T12:01:04.777Z,320.00
2019-05-12T12:02:03.159Z,308.00
2019-05-12T12:03:12.368Z,308.00
2019-05-12T12:04:04.165Z,324.00
2019-05-12T12:05:03.108Z,556.00
2019-05-12T12:06:03.096Z,524.00
2019-05-12T12:07:03.092Z,372.00
2019-05-12T12:08:03.988Z,300.00
2019-05-12T12:09:03.926Z,296.00
2019-05-12T12:10:03.722Z,296.00
2019-05-12T12:11:03.937Z,296.00
2019-05-12T12:12:07.212Z,296.00
2019-05-12T12:13:03.788Z,288.00
2019-05-12T12:14:06.381Z,280.00
2019-05-12T12:15:04.683Z,264.00
2019-05-12T12:16:07.096Z,264.00
2019-05-12T12:17:03.972Z,272.00
2019-05-12T12:18:12.432Z,276.00
2019-05-12T12:19:05.760Z,276.00
2019-05-12T12:20:03.771Z,276.00
2019-05-12T12:21:07.440Z,272.00
2019-05-12T12:22:04.378Z,260.00
2019-05-12T12:23:08.819Z,260.00
2019-05-12T12:24:04.036Z,252.00
2019-05-12T12:25:10.429Z,248.00
2019-05-12T12:26:04.083Z,228.00
2019-05-12T12:27:03.890Z,208.00
2019-05-12T12:28:04.348Z,192.00
2019-05-12T12:29:03.303Z,180.00
2019-05-12T12:30:15.692Z,176.00
2019-05-12T12:31:07.527Z,176.00
2019-05-12T12:32:02.805Z,176.00
2019-05-12T12:33:04.020Z,180.00
2019-05-12T12:34:02.815Z,176.00
2019-05-12T12:35:07.419Z,176.00
2019-05-12T12:36:04.175Z,176.00
2019-05-12T12:37:03.305Z,172.00
2019-05-12T12:38:03.571Z,172.00
2019-05-12T12:39:04.197Z,172.00
2019-05-12T12:40:04.306Z,172.00
2019-05-12T12:41:03.910Z,176.00
2019-05-12T12:42:04.429Z,180.00
2019-05-12T12:43:03.824Z,184.00
2019-05-12T12:44:04.586Z,184.00
2019-05-12T12:45:04.216Z,188.00
2019-05-12T12:46:02.667Z,192.00